createdAt,value
2022-11-03T00:00:31.476Z,69.60
2022-11-03T00:02:59.061Z,68.54
2022-11-03T00:05:28.367Z,69.68
2022-11-03T00:07:55.897Z,72.25
2022-11-03T00:10:23.077Z,73.15
2022-11-03T00:12:50.796Z,71.17
2022-11-03T00:15:18.050Z,72.03
2022-11-03T00:17:46.845Z,71.52
2022-11-03T00:20:14.239Z,70.88
2022-11-03T00:22:43.407Z,69.21
2022-11-03T00:25:10.635Z,71.18
2022-11-03T00:27:38.487Z,71.90
2022-11-03T00:30:06.728Z,70.74
2022-11-03T00:32:34.712Z,71.29
2022-11-03T00:35:02.076Z,71.74
2022-11-03T00:37:29.715Z,71.30
2022-11-03T00:39:58.551Z,70.80
2022-11-03T00:42:26.151Z,70.81
2022-11-03T00:44:53.501Z,70.36
2022-11-03T00:47:23.389Z,70.00
2022-11-03T00:49:52.156Z,70.77
2022-11-03T00:52:19.466Z,70.22
2022-11-03T00:54:48.872Z,66.98
2022-11-03T00:57:20.581Z,65.14
2022-11-03T00:59:47.806Z,66.33
2022-11-03T01:02:15.790Z,71.65
2022-11-03T01:04:43.227Z,72.24
2022-11-03T01:07:10.595Z,72.78
2022-11-03T01:09:40.134Z,71.55
2022-11-03T01:12:09.870Z,68.55
2022-11-03T01:14:41.464Z,68.62
2022-11-03T01:17:10.717Z,67.99
2022-11-03T01:19:38.065Z,67.75
2022-11-03T01:22:09.526Z,71.46
2022-11-03T01:24:38.648Z,74.05
2022-11-03T01:27:06.539Z,73.89
2022-11-03T01:29:33.736Z,72.78
2022-11-03T01:32:02.908Z,70.06
2022-11-03T01:34:30.296Z,72.52
2022-11-03T01:36:58.246Z,73.69
2022-11-03T01:39:25.447Z,73.18
2022-11-03T01:41:53.283Z,69.53
2022-11-03T01:44:29.890Z,68.77
2022-11-03T01:47:04.835Z,68.14
2022-11-03T01:49:38.800Z,70.43
2022-11-03T01:52:11.031Z,70.65
2022-11-03T01:54:41.214Z,70.79
2022-11-03T01:57:13.860Z,69.59
2022-11-03T01:59:42.208Z,70.87
2022-11-03T02:02:11.675Z,68.80
2022-11-03T02:04:39.688Z,67.93
2022-11-03T02:07:15.407Z,69.13
2022-11-03T02:09:42.855Z,70.14
2022-11-03T02:12:10.911Z,70.58
2022-11-03T02:14:43.490Z,71.39
2022-11-03T02:17:14.750Z,69.68
2022-11-03T02:19:46.328Z,68.17
2022-11-03T02:22:29.944Z,69.23
2022-11-03T02:25:05.135Z,70.67
2022-11-03T02:27:34.144Z,72.69
2022-11-03T02:30:01.739Z,68.67
2022-11-03T02:32:38.221Z,70.51
2022-11-03T02:35:12.814Z,68.78
2022-11-03T02:37:44.812Z,68.36
2022-11-03T02:40:15.073Z,69.21
2022-11-03T02:42:48.744Z,70.67
2022-11-03T02:45:20.192Z,73.01
2022-11-03T02:47:49.218Z,72.50
2022-11-03T02:50:17.108Z,72.00
2022-11-03T02:52:47.661Z,71.52
2022-11-03T02:55:22.922Z,73.44
2022-11-03T02:57:59.733Z,73.01
2022-11-03T03:00:29.962Z,70.53
2022-11-03T03:03:02.974Z,70.22
2022-11-03T03:05:34.352Z,68.58
2022-11-03T03:08:05.703Z,69.38
2022-11-03T03:10:36.487Z,69.94
2022-11-03T03:13:07.954Z,69.74
2022-11-03T03:15:49.986Z,68.66
2022-11-03T03:18:24.809Z,72.19
2022-11-03T03:20:57.105Z,75.81
2022-11-03T03:23:27.193Z,77.27
2022-11-03T03:26:01.392Z,77.79
2022-11-03T03:28:35.159Z,76.99
2022-11-03T03:31:08.280Z,78.04
2022-11-03T03:33:38.820Z,78.66
2022-11-03T03:36:15.285Z,79.84
2022-11-03T03:38:48.914Z,79.17
2022-11-03T03:41:17.796Z,78.81
2022-11-03T03:43:47.697Z,78.07
2022-11-03T03:46:17.258Z,77.01
2022-11-03T03:48:45.025Z,73.76
2022-11-03T03:51:13.965Z,73.16
2022-11-03T03:53:42.324Z,73.11
2022-11-03T03:56:09.657Z,73.35
2022-11-03T03:58:37.273Z,73.36
2022-11-03T04:01:05.863Z,71.73
2022-11-03T04:03:33.332Z,71.85
2022-11-03T04:06:01.002Z,73.45
2022-11-03T04:08:28.207Z,77.34
2022-11-03T04:10:55.827Z,78.19
2022-11-03T04:13:23.102Z,74.91
2022-11-03T04:15:50.496Z,79.13
2022-11-03T04:18:21.735Z,80.51
2022-11-03T04:20:48.984Z,80.91
2022-11-03T04:23:17.005Z,79.88
2022-11-03T04:25:54.425Z,79.57
2022-11-03T04:28:22.354Z,80.56
2022-11-03T04:30:53.305Z,79.81
2022-11-03T04:33:25.104Z,80.46
2022-11-03T04:35:55.022Z,81.16
2022-11-03T04:38:24.367Z,80.87
2022-11-03T04:40:54.804Z,81.31
2022-11-03T04:43:29.609Z,80.55
2022-11-03T04:45:56.928Z,80.30
2022-11-03T04:48:28.912Z,80.61
2022-11-03T04:51:00.332Z,80.37
2022-11-03T04:53:32.856Z,76.05
2022-11-03T04:56:04.418Z,77.43
2022-11-03T04:58:36.381Z,76.83
2022-11-03T05:01:04.303Z,76.46
2022-11-03T05:03:36.381Z,78.17
2022-11-03T05:06:11.504Z,77.67
2022-11-03T05:08:39.781Z,78.01
2022-11-03T05:11:15.104Z,78.74
2022-11-03T05:13:43.138Z,78.66
2022-11-03T05:16:10.461Z,78.65
2022-11-03T05:18:42.853Z,78.39
2022-11-03T05:21:12.806Z,78.28
2022-11-03T05:23:42.037Z,78.74
2022-11-03T05:26:17.480Z,78.91
2022-11-03T05:28:48.668Z,79.07
2022-11-03T05:31:22.320Z,79.07
2022-11-03T05:33:52.486Z,78.80
2022-11-03T05:36:22.254Z,80.17
2022-11-03T05:38:50.450Z,78.92
2022-11-03T05:41:22.257Z,77.93
2022-11-03T05:43:56.302Z,76.86
2022-11-03T05:46:24.596Z,77.39
2022-11-03T05:48:53.830Z,75.68
2022-11-03T05:51:23.119Z,72.90
2022-11-03T05:53:53.953Z,72.04
2022-11-03T05:56:25.644Z,70.77
2022-11-03T05:58:56.004Z,72.64
2022-11-03T06:01:26.283Z,73.98
2022-11-03T06:03:56.199Z,73.48
2022-11-03T06:06:32.040Z,73.29
2022-11-03T06:09:03.919Z,72.31
2022-11-03T06:11:35.363Z,72.49
2022-11-03T06:14:16.621Z,72.67
2022-11-03T06:16:49.861Z,73.28
2022-11-03T06:19:29.283Z,73.72
2022-11-03T06:22:02.817Z,73.89
2022-11-03T06:24:32.263Z,74.81
2022-11-03T06:26:59.830Z,75.19
2022-11-03T06:29:32.474Z,76.14
2022-11-03T06:31:59.668Z,75.87
2022-11-03T06:34:37.019Z,76.45
2022-11-03T06:37:18.667Z,76.70
2022-11-03T06:39:47.054Z,77.13
2022-11-03T06:42:15.982Z,75.67
2022-11-03T06:44:46.188Z,75.69
2022-11-03T06:47:22.510Z,75.90
2022-11-03T06:49:53.053Z,76.51
2022-11-03T06:52:26.952Z,74.44
2022-11-03T06:55:00.973Z,73.52
2022-11-03T06:57:38.148Z,73.74
2022-11-03T07:03:09.312Z,72.94
2022-11-03T07:05:39.429Z,72.36
2022-11-03T07:08:18.997Z,72.08
2022-11-03T07:10:46.593Z,71.67
2022-11-03T07:13:18.559Z,70.41
2022-11-03T07:15:46.555Z,70.71
2022-11-03T07:18:19.711Z,69.05
2022-11-03T07:20:49.726Z,70.43
2022-11-03T07:23:19.636Z,70.39
2022-11-03T07:25:51.324Z,70.86
2022-11-03T07:28:18.619Z,71.22
2022-11-03T07:30:46.337Z,71.85
2022-11-03T07:33:18.744Z,72.64
2022-11-03T07:36:19.221Z,72.03
2022-11-03T07:38:38.442Z,72.99
2022-11-03T07:41:12.415Z,74.63
2022-11-03T07:43:39.730Z,74.03
2022-11-03T07:46:16.905Z,75.81
2022-11-03T07:48:47.012Z,76.42
2022-11-03T07:51:22.341Z,76.97
2022-11-03T07:53:59.253Z,75.13
2022-11-03T07:56:29.399Z,74.51
2022-11-03T07:59:01.597Z,75.07
2022-11-03T08:01:31.585Z,74.58
2022-11-03T08:04:01.815Z,73.89
2022-11-03T08:06:31.288Z,73.50
2022-11-03T08:09:01.664Z,73.20
2022-11-03T08:11:30.041Z,72.23
2022-11-03T08:14:00.522Z,70.63
2022-11-03T08:16:30.461Z,72.69
2022-11-03T08:19:00.180Z,70.81
2022-11-03T08:21:27.948Z,70.69
2022-11-03T08:24:00.293Z,70.00
2022-11-03T08:26:28.816Z,70.78
2022-11-03T08:29:02.294Z,68.88
2022-11-03T08:31:44.818Z,69.18
2022-11-03T08:34:21.197Z,69.09
2022-11-03T08:36:49.105Z,69.34
2022-11-03T08:39:18.125Z,68.52
2022-11-03T08:41:45.833Z,67.79
2022-11-03T08:44:13.220Z,66.54
2022-11-03T08:46:40.997Z,66.25
2022-11-03T08:49:08.262Z,65.76
2022-11-03T08:51:40.100Z,66.04
2022-11-03T08:54:10.532Z,66.07
2022-11-03T08:56:39.498Z,66.31
2022-11-03T08:59:06.723Z,63.79
2022-11-03T09:01:34.596Z,64.88
2022-11-03T09:04:02.074Z,64.83
2022-11-03T09:06:30.150Z,63.67
2022-11-03T09:11:46.482Z,64.35
2022-11-03T09:14:13.814Z,63.94
2022-11-03T09:16:41.014Z,62.64
2022-11-03T09:19:08.869Z,63.70
2022-11-03T09:21:36.367Z,63.84
2022-11-03T09:24:03.839Z,63.18
2022-11-03T09:26:31.584Z,63.27
2022-11-03T09:29:00.314Z,63.25
2022-11-03T09:31:28.069Z,62.04
2022-11-03T09:33:55.560Z,62.68
2022-11-03T09:36:23.176Z,63.54
2022-11-03T09:38:50.668Z,62.97
2022-11-03T09:41:26.698Z,63.07
2022-11-03T09:43:58.056Z,63.86
2022-11-03T09:46:29.343Z,64.24
2022-11-03T09:48:56.978Z,64.44
2022-11-03T09:51:26.954Z,62.97
2022-11-03T09:53:57.061Z,63.53
2022-11-03T09:56:25.866Z,63.86
2022-11-03T09:58:54.737Z,62.66
2022-11-03T10:01:23.247Z,62.14
2022-11-03T10:03:52.614Z,63.23
2022-11-03T10:06:19.792Z,62.80
2022-11-03T10:08:48.254Z,62.64
2022-11-03T10:11:15.720Z,63.04
2022-11-03T10:13:47.126Z,62.04
2022-11-03T10:16:17.384Z,62.96
2022-11-03T10:18:45.499Z,62.83
2022-11-03T10:21:17.445Z,61.56
2022-11-03T10:23:45.897Z,60.03
2022-11-03T10:26:15.758Z,61.13
2022-11-03T10:28:58.105Z,59.74
2022-11-03T10:31:32.441Z,60.37
2022-11-03T10:34:00.226Z,59.58
2022-11-03T10:36:30.204Z,60.56
2022-11-03T10:38:58.442Z,61.09
2022-11-03T10:41:27.365Z,60.40
2022-11-03T10:44:03.685Z,60.19
2022-11-03T10:49:20.661Z,59.26
2022-11-03T10:51:52.530Z,57.30
2022-11-03T10:54:21.715Z,56.69
2022-11-03T10:56:51.271Z,57.69
2022-11-03T10:59:20.663Z,56.26
2022-11-03T11:01:48.683Z,56.11
2022-11-03T11:04:17.652Z,56.22
2022-11-03T11:06:46.397Z,55.86
2022-11-03T11:09:20.196Z,56.71
2022-11-03T11:12:05.493Z,56.66
2022-11-03T11:14:39.472Z,55.96
2022-11-03T11:17:41.082Z,56.46
2022-11-03T11:20:38.765Z,56.10
2022-11-03T11:23:48.775Z,56.79
2022-11-03T11:26:33.625Z,56.09
2022-11-03T11:29:40.856Z,56.02
2022-11-03T11:32:47.402Z,56.29
2022-11-03T11:35:18.371Z,55.58
2022-11-03T11:37:45.590Z,55.47
2022-11-03T11:40:14.947Z,54.25
2022-11-03T11:43:19.879Z,54.37
2022-11-03T11:46:35.747Z,54.14
2022-11-03T11:49:17.450Z,53.28
2022-11-03T11:51:45.106Z,52.91
2022-11-03T11:54:18.296Z,52.26
2022-11-03T11:56:47.705Z,51.67
2022-11-03T11:59:25.294Z,51.23
2022-11-03T12:01:56.710Z,52.17
2022-11-03T12:04:27.519Z,50.29
2022-11-03T12:06:54.938Z,49.64
2022-11-03T12:09:24.381Z,50.25
2022-11-03T12:11:55.638Z,48.90
2022-11-03T12:14:33.951Z,50.34
2022-11-03T12:17:33.164Z,49.78
2022-11-03T12:20:01.091Z,49.72
2022-11-03T12:22:41.892Z,49.74
2022-11-03T12:25:33.222Z,50.09
2022-11-03T12:28:00.485Z,48.94
2022-11-03T12:30:28.110Z,49.84
2022-11-03T12:32:56.660Z,50.30
2022-11-03T12:35:23.932Z,49.79
2022-11-03T12:37:51.599Z,49.48
2022-11-03T12:40:19.068Z,49.17
2022-11-03T12:42:46.222Z,50.07
2022-11-03T12:45:14.305Z,50.52
2022-11-03T12:47:41.538Z,50.33
2022-11-03T12:50:10.606Z,50.55
2022-11-03T12:52:38.425Z,51.79
2022-11-03T12:55:06.363Z,51.82
2022-11-03T12:57:34.359Z,51.22
2022-11-03T13:00:01.676Z,51.85
2022-11-03T13:02:29.607Z,52.27
2022-11-03T13:04:56.903Z,51.43
2022-11-03T13:07:31.842Z,51.18
2022-11-03T13:10:01.819Z,51.19
2022-11-03T13:12:29.626Z,51.72
2022-11-03T13:14:57.161Z,51.64
2022-11-03T13:17:24.705Z,52.06
2022-11-03T13:19:54.796Z,52.60
2022-11-03T13:22:22.287Z,53.10
2022-11-03T13:24:51.308Z,53.85
2022-11-03T13:27:18.575Z,54.25
2022-11-03T13:29:46.168Z,54.70
2022-11-03T13:32:13.401Z,55.23
2022-11-03T13:34:41.032Z,55.72
2022-11-03T13:37:08.313Z,56.29
2022-11-03T13:39:36.212Z,56.49
2022-11-03T13:42:05.082Z,57.63
2022-11-03T13:44:32.761Z,57.86
2022-11-03T13:47:00.139Z,58.01
2022-11-03T13:52:15.154Z,59.37
2022-11-03T14:00:19.581Z,60.32
2022-11-03T14:05:35.223Z,60.89
2022-11-03T14:08:02.524Z,61.00
2022-11-03T14:10:30.324Z,61.18
2022-11-03T14:12:59.142Z,60.97
2022-11-03T14:15:26.821Z,61.31
2022-11-03T14:17:54.110Z,61.75
2022-11-03T14:20:21.857Z,62.13
2022-11-03T14:22:49.147Z,62.19
2022-11-03T14:25:17.459Z,62.48
2022-11-03T14:27:44.655Z,62.60
2022-11-03T14:30:14.357Z,62.62
2022-11-03T14:32:41.635Z,62.47
2022-11-03T14:35:12.167Z,62.68
2022-11-03T14:37:39.559Z,63.04
2022-11-03T14:40:08.655Z,63.00
2022-11-03T14:42:36.238Z,63.45
2022-11-03T14:45:03.615Z,64.06
2022-11-03T14:47:32.908Z,64.05
2022-11-03T14:50:00.113Z,64.02
2022-11-03T14:52:27.500Z,64.15
2022-11-03T14:54:55.288Z,64.73
2022-11-03T14:57:22.522Z,64.98
2022-11-03T14:59:53.368Z,64.87
2022-11-03T15:02:21.380Z,65.18
2022-11-03T15:04:50.682Z,65.29
2022-11-03T15:07:17.999Z,65.11
2022-11-03T15:09:45.266Z,65.45
2022-11-03T15:12:13.021Z,65.34
2022-11-03T15:14:41.475Z,65.72
2022-11-03T15:17:09.128Z,66.04
2022-11-03T15:19:36.775Z,66.24
2022-11-03T15:22:05.489Z,66.45
2022-11-03T15:27:20.608Z,66.42
2022-11-03T15:29:48.166Z,66.75
2022-11-03T15:32:15.401Z,67.22
2022-11-03T15:34:43.339Z,68.04
2022-11-03T15:37:11.978Z,68.13
2022-11-03T15:39:39.454Z,68.27
2022-11-03T15:42:06.906Z,68.40
2022-11-03T15:44:34.585Z,68.08
2022-11-03T15:47:01.771Z,68.14
2022-11-03T15:49:29.983Z,68.24
2022-11-03T15:51:57.270Z,68.27
2022-11-03T15:54:26.385Z,67.56
2022-11-03T15:56:53.864Z,67.42
2022-11-03T15:59:21.837Z,67.55
2022-11-03T16:01:49.283Z,67.77
2022-11-03T16:04:17.187Z,67.68
2022-11-03T16:09:33.717Z,67.94
2022-11-03T16:12:01.132Z,67.69
2022-11-03T16:14:30.919Z,67.49
2022-11-03T16:16:58.748Z,67.76
2022-11-03T16:19:25.990Z,67.82
2022-11-03T16:21:53.609Z,67.82
2022-11-03T16:24:29.609Z,68.10
2022-11-03T16:27:04.775Z,68.26
2022-11-03T16:29:32.212Z,68.25
2022-11-03T16:31:59.932Z,68.88
2022-11-03T16:34:27.612Z,69.10
2022-11-03T16:36:57.752Z,69.00
2022-11-03T16:39:25.075Z,69.09
2022-11-03T16:41:52.846Z,68.97
2022-11-03T16:44:21.686Z,69.00
2022-11-03T16:46:51.799Z,69.31
2022-11-03T16:49:19.209Z,69.57
2022-11-03T16:51:47.298Z,70.01
2022-11-03T16:54:14.565Z,69.90
2022-11-03T16:56:42.805Z,70.29
2022-11-03T16:59:10.142Z,70.68
2022-11-03T17:01:39.730Z,70.59
2022-11-03T17:04:07.045Z,69.91
2022-11-03T17:06:34.698Z,71.01
2022-11-03T17:09:01.931Z,70.95
2022-11-03T17:11:29.633Z,70.56
2022-11-03T17:13:56.964Z,70.50
2022-11-03T17:16:24.611Z,70.02
2022-11-03T17:18:53.182Z,69.68
2022-11-03T17:21:20.856Z,70.35
2022-11-03T17:23:48.165Z,69.75
2022-11-03T17:26:17.479Z,70.52
2022-11-03T17:28:44.813Z,71.16
2022-11-03T17:31:12.549Z,70.71
2022-11-03T17:33:39.949Z,70.15
2022-11-03T17:36:10.325Z,69.95
2022-11-03T17:38:38.267Z,70.00
2022-11-03T17:41:06.710Z,70.45
2022-11-03T17:43:34.041Z,70.68
2022-11-03T17:46:01.873Z,71.30
2022-11-03T17:48:29.141Z,70.94
2022-11-03T17:50:57.663Z,71.19
2022-11-03T17:53:29.686Z,71.48
2022-11-03T17:56:27.817Z,71.64
2022-11-03T17:58:47.126Z,71.06
2022-11-03T18:01:20.473Z,70.46
2022-11-03T18:03:47.868Z,70.02
2022-11-03T18:06:17.487Z,70.10
2022-11-03T18:08:46.609Z,71.15
2022-11-03T18:11:16.089Z,71.31
2022-11-03T18:13:43.507Z,72.13
2022-11-03T18:16:13.021Z,73.15
2022-11-03T18:18:42.450Z,74.05
2022-11-03T18:21:13.713Z,74.92
2022-11-03T18:23:41.048Z,75.48
2022-11-03T18:26:15.839Z,75.82
2022-11-03T18:28:43.581Z,75.34
2022-11-03T18:31:17.861Z,75.68
2022-11-03T18:33:45.229Z,75.94
2022-11-03T18:36:14.793Z,75.43
2022-11-03T18:38:44.561Z,75.72
2022-11-03T18:41:16.466Z,75.09
2022-11-03T18:43:43.920Z,74.79
2022-11-03T18:46:11.691Z,74.72
2022-11-03T18:48:41.852Z,74.38
2022-11-03T18:51:10.540Z,74.32
2022-11-03T18:53:37.807Z,74.61
2022-11-03T18:56:09.947Z,74.95
2022-11-03T18:58:39.072Z,75.01
2022-11-03T19:01:07.077Z,74.67
2022-11-03T19:03:34.508Z,74.38
2022-11-03T19:06:02.609Z,74.09
2022-11-03T19:08:32.178Z,74.99
2022-11-03T19:11:00.511Z,75.16
2022-11-03T19:13:29.850Z,75.05
2022-11-03T19:16:01.004Z,75.40
2022-11-03T19:18:30.190Z,75.19
2022-11-03T19:20:57.927Z,75.36
2022-11-03T19:23:25.350Z,75.25
2022-11-03T19:25:57.988Z,75.00
2022-11-03T19:28:26.386Z,75.17
2022-11-03T19:30:57.859Z,75.02
2022-11-03T19:33:29.832Z,75.12
2022-11-03T19:35:57.957Z,75.78
2022-11-03T19:38:25.498Z,75.56
2022-11-03T19:40:53.701Z,75.14
2022-11-03T19:43:21.010Z,75.16
2022-11-03T19:45:48.335Z,75.31
2022-11-03T19:48:24.081Z,75.12
2022-11-03T19:50:54.038Z,76.36
2022-11-03T19:53:25.205Z,76.47
2022-11-03T19:55:53.644Z,76.30
2022-11-03T19:58:23.282Z,76.07
2022-11-03T20:00:51.709Z,76.22
2022-11-03T20:03:19.710Z,76.45
2022-11-03T20:05:49.801Z,76.72
2022-11-03T20:08:22.072Z,76.75
2022-11-03T20:10:50.151Z,76.65
2022-11-03T20:13:20.472Z,76.52
2022-11-03T20:15:47.991Z,76.70
2022-11-03T20:18:16.785Z,76.62
2022-11-03T20:20:45.666Z,76.19
2022-11-03T20:23:22.732Z,75.68
2022-11-03T20:25:50.277Z,75.40
2022-11-03T20:28:19.903Z,75.20
2022-11-03T20:30:47.633Z,75.07
2022-11-03T20:33:16.869Z,74.29
2022-11-03T20:35:46.135Z,74.29
2022-11-03T20:38:15.301Z,74.93
2022-11-03T20:40:44.473Z,74.92
2022-11-03T20:43:22.791Z,74.56
2022-11-03T20:45:50.501Z,74.86
2022-11-03T20:48:18.278Z,74.62
2022-11-03T20:50:46.049Z,74.56
2022-11-03T20:53:15.584Z,74.91
2022-11-03T20:55:45.046Z,74.29
2022-11-03T20:58:13.983Z,74.84
2022-11-03T21:01:22.555Z,75.01
2022-11-03T21:04:05.383Z,75.43
2022-11-03T21:06:33.272Z,75.29
2022-11-03T21:09:00.842Z,75.15
2022-11-03T21:11:35.013Z,74.86
2022-11-03T21:14:08.734Z,74.92
2022-11-03T21:16:36.581Z,75.35
2022-11-03T21:19:13.670Z,75.14
2022-11-03T21:21:41.386Z,75.41
2022-11-03T21:24:11.089Z,75.29
2022-11-03T21:26:40.434Z,75.58
2022-11-03T21:29:07.754Z,75.46
2022-11-03T21:31:35.551Z,75.59
2022-11-03T21:34:02.753Z,75.86
2022-11-03T21:36:30.532Z,75.26
2022-11-03T21:38:57.926Z,75.15
2022-11-03T21:41:25.743Z,75.38
2022-11-03T21:43:54.584Z,75.47
2022-11-03T21:46:22.826Z,75.90
2022-11-03T21:48:50.166Z,75.60
2022-11-03T21:51:17.334Z,75.61
2022-11-03T21:53:45.086Z,75.60
2022-11-03T21:56:15.601Z,75.61
2022-11-03T21:58:43.879Z,75.42
2022-11-03T22:01:12.749Z,75.96
2022-11-03T22:03:40.927Z,75.97
2022-11-03T22:06:10.113Z,75.78
2022-11-03T22:08:38.263Z,75.64
2022-11-03T22:11:06.994Z,75.33
2022-11-03T22:13:34.664Z,74.98
2022-11-03T22:16:01.939Z,75.09
2022-11-03T22:18:31.124Z,74.59
2022-11-03T22:20:58.524Z,74.26
2022-11-03T22:23:25.806Z,74.82
2022-11-03T22:25:53.521Z,74.58
2022-11-03T22:28:21.021Z,74.60
2022-11-03T22:30:48.922Z,74.55
2022-11-03T22:33:16.189Z,75.05
2022-11-03T22:35:45.270Z,75.28
2022-11-03T22:38:14.329Z,75.31
2022-11-03T22:40:42.914Z,75.28
2022-11-03T22:43:10.580Z,75.60
2022-11-03T22:45:43.562Z,75.86
2022-11-03T22:48:10.804Z,75.82
2022-11-03T22:50:38.014Z,76.12
2022-11-03T22:53:07.538Z,76.14
2022-11-03T22:55:34.954Z,75.84
2022-11-03T22:58:02.932Z,75.82
2022-11-03T23:00:30.258Z,75.72
2022-11-03T23:03:00.680Z,75.83
2022-11-03T23:05:27.810Z,75.15
2022-11-03T23:07:55.323Z,75.30
2022-11-03T23:10:24.055Z,75.58
2022-11-03T23:12:51.412Z,75.35
2022-11-03T23:15:19.087Z,75.36
2022-11-03T23:17:46.308Z,75.72
2022-11-03T23:20:14.058Z,76.01
2022-11-03T23:22:41.775Z,76.13
2022-11-03T23:25:09.416Z,76.37
2022-11-03T23:27:38.472Z,76.44
2022-11-03T23:30:06.803Z,76.82
2022-11-03T23:32:34.649Z,76.28
2022-11-03T23:35:01.824Z,76.50
2022-11-03T23:37:29.452Z,76.02
2022-11-03T23:39:56.846Z,76.16
2022-11-03T23:42:24.183Z,76.37
2022-11-03T23:44:53.357Z,76.52
2022-11-03T23:47:20.866Z,76.46
2022-11-03T23:49:48.186Z,76.99
2022-11-03T23:52:16.014Z,77.14
2022-11-03T23:54:43.820Z,78.01
2022-11-03T23:57:11.483Z,78.85
2022-11-03T23:59:38.786Z,78.66
